Time;durP1;ratioP1;P1;durP2;ratioP2;P2;SDS_P1;SDS_P2;PMS_P1;PMS_P2;Temp;Humidity;BMP_temperature;BMP_pressure;BME280_temperature;BME280_humidity;BME280_pressure;Samples;Min_cycle;Max_cycle;Signal;HPM_P1;HPM_P2
2021/12/21 00:01:33;;;;;;;15.45;6.57;;;;;;;6.96;58.02;102701.44;5074529;28;20056;-63
2021/12/21 00:04:01;;;;;;;15.52;6.70;;;;;;;6.96;58.14;102704.97;5069619;28;20074;-63
2021/12/21 00:06:28;;;;;;;20.20;7.38;;;;;;;6.97;58.31;102713.81;5072772;28;20044;-62
2021/12/21 00:08:58;;;;;;;13.75;5.93;;;;;;;6.95;58.34;102715.81;5061149;28;20049;-62
2021/12/21 00:11:26;;;;;;;19.92;7.00;;;;;;;6.93;58.22;102707.97;5077151;28;20053;-63
2021/12/21 00:14:11;;;;;;;20.58;7.70;;;;;;;6.91;57.91;102704.59;5067939;28;20052;-63
2021/12/21 00:23:07;;;;;;;17.25;6.38;;;;;;;6.88;58.05;102707.59;5008121;28;20077;-63
2021/12/21 00:25:30;;;;;;;12.30;6.50;;;;;;;6.87;58.51;102705.06;5010195;28;20045;-62
2021/12/21 00:27:58;;;;;;;15.15;5.93;;;;;;;6.87;58.06;102699.72;5007416;28;20054;-63
2021/12/21 00:30:26;;;;;;;18.48;6.43;;;;;;;6.86;57.81;102704.22;5006796;28;20050;-62
2021/12/21 00:32:53;;;;;;;15.20;6.57;;;;;;;6.84;58.04;102704.38;5003149;28;20042;-63
2021/12/21 00:35:21;;;;;;;14.23;6.40;;;;;;;6.82;58.05;102695.66;5010061;28;20053;-63
2021/12/21 00:37:49;;;;;;;17.52;6.53;;;;;;;6.82;58.00;102692.16;5007737;28;20046;-63
2021/12/21 00:40:17;;;;;;;18.88;6.70;;;;;;;6.81;58.03;102701.16;5006355;28;20512;-62
2021/12/21 00:42:46;;;;;;;13.57;6.32;;;;;;;6.79;57.99;102690.63;5003315;28;20069;-63
2021/12/21 00:45:14;;;;;;;23.80;6.97;;;;;;;6.79;58.01;102687.13;5002605;28;20093;-63
2021/12/21 00:47:47;;;;;;;13.73;6.57;;;;;;;6.80;58.00;102684.28;5002043;28;20050;-63
2021/12/21 00:50:17;;;;;;;17.50;6.38;;;;;;;6.79;58.78;102689.78;5005419;28;20050;-62
2021/12/21 00:52:47;;;;;;;16.70;6.60;;;;;;;6.78;58.30;102688.09;5016425;28;20041;-62
2021/12/21 00:55:16;;;;;;;15.88;6.70;;;;;;;6.76;58.03;102676.72;5070659;28;20040;-62
2021/12/21 00:57:44;;;;;;;12.93;6.03;;;;;;;6.76;58.31;102680.25;5078154;28;20041;-63
2021/12/21 01:00:16;;;;;;;18.45;6.78;;;;;;;6.77;58.13;102673.91;5069580;28;20098;-63
2021/12/21 01:02:45;;;;;;;15.30;6.38;;;;;;;6.76;58.27;102672.22;5078619;28;20078;-63
2021/12/21 01:05:20;;;;;;;16.90;6.85;;;;;;;6.74;58.05;102678.72;5071581;28;20053;-64
2021/12/21 01:07:51;;;;;;;18.92;6.63;;;;;;;6.74;58.00;102684.91;5065629;28;20060;-63
2021/12/21 01:13:14;;;;;;;20.10;7.63;;;;;;;6.70;58.22;102674.66;5064789;28;20045;-63
2021/12/21 01:16:04;;;;;;;20.40;6.95;;;;;;;6.70;57.71;102680.00;5065599;28;20053;-63
2021/12/21 01:18:37;;;;;;;17.05;6.72;;;;;;;6.64;57.96;102675.28;5064404;28;20052;-63
2021/12/21 01:21:11;;;;;;;13.80;5.85;;;;;;;6.65;58.13;102677.78;5067807;28;20052;-62
2021/12/21 01:24:02;;;;;;;19.95;6.78;;;;;;;6.64;57.98;102678.78;5073928;28;20095;-62
2021/12/21 01:26:37;;;;;;;16.60;7.20;;;;;;;6.65;57.93;102682.28;5068401;28;20053;-62
2021/12/21 01:29:14;;;;;;;18.45;7.85;;;;;;;6.64;58.03;102688.63;5067499;28;20091;-62
2021/12/21 01:31:51;;;;;;;14.00;5.95;;;;;;;6.62;57.80;102686.09;5063540;28;20064;-62
2021/12/21 01:34:32;;;;;;;18.10;7.05;;;;;;;6.62;58.19;102680.75;5074698;28;20098;-62
2021/12/21 01:37:05;;;;;;;18.52;7.15;;;;;;;6.60;57.97;102680.06;5078094;28;20564;-62
2021/12/21 01:42:30;;;;;;;;;;;;;;;6.57;58.31;102675.03;5062766;28;20056;-63
2021/12/21 01:50:27;;;;;;;17.63;7.03;;;;;;;6.55;58.06;102671.66;5070107;28;20401;-62
2021/12/21 01:52:55;;;;;;;16.20;7.30;;;;;;;6.55;57.95;102668.16;5074032;28;20063;-62
2021/12/21 01:55:22;;;;;;;20.27;7.05;;;;;;;6.52;57.95;102672.81;5069469;28;20490;-63
2021/12/21 01:57:50;;;;;;;15.43;7.00;;;;;;;6.52;58.13;102669.31;5069119;28;20049;-63
2021/12/21 02:00:19;;;;;;;18.45;7.15;;;;;;;6.49;57.98;102665.09;5076744;28;20053;-63
2021/12/21 02:02:48;;;;;;;19.60;7.30;;;;;;;6.48;58.15;102659.91;5082573;28;20051;-63
2021/12/21 02:05:16;;;;;;;14.63;6.10;;;;;;;6.47;58.01;102656.41;5067876;28;20108;-62
2021/12/21 02:07:44;;;;;;;19.02;8.15;;;;;;;6.47;58.28;102655.56;5070838;28;20151;-62
2021/12/21 02:10:12;;;;;;;22.83;8.20;;;;;;;6.46;57.76;102662.72;5066498;28;20439;-62
2021/12/21 02:12:39;;;;;;;16.17;7.55;;;;;;;6.45;57.96;102649.53;5065493;28;20049;-62
2021/12/21 02:15:09;;;;;;;19.85;8.40;;;;;;;6.42;57.93;102645.31;5066012;28;20045;-62
2021/12/21 02:20:38;;;;;;;;;;;;;;;6.42;57.97;102644.50;5048987;28;20079;-62
2021/12/21 02:23:10;;;;;;;18.63;6.93;;;;;;;6.41;57.92;102650.81;5069329;28;20308;-62
2021/12/21 02:26:03;;;;;;;18.05;7.40;;;;;;;6.39;57.96;102644.78;5076758;28;20040;-62
2021/12/21 02:28:58;;;;;;;19.25;7.45;;;;;;;6.37;58.02;102652.94;5071092;28;20049;-62
2021/12/21 02:31:27;;;;;;;21.35;7.70;;;;;;;6.37;57.86;102650.28;5073188;28;20072;-62
2021/12/21 02:33:56;;;;;;;18.83;7.38;;;;;;;6.38;57.91;102648.44;5085373;28;20055;-62
2021/12/21 02:36:25;;;;;;;20.55;7.72;;;;;;;6.38;57.92;102643.09;5076347;28;20052;-62
2021/12/21 02:38:53;;;;;;;16.65;6.82;;;;;;;6.34;57.79;102642.56;5072105;28;20075;-62
2021/12/21 02:41:20;;;;;;;17.02;8.07;;;;;;;6.33;57.97;102638.22;5084232;28;20469;-62
2021/12/21 02:43:48;;;;;;;25.35;9.32;;;;;;;6.33;58.01;102645.38;5065972;28;20045;-62
2021/12/21 02:46:16;;;;;;;14.32;7.13;;;;;;;6.32;57.88;102646.38;5074605;28;20078;-62
2021/12/21 02:48:44;;;;;;;19.88;8.27;;;;;;;6.31;57.70;102636.69;5070573;28;20047;-62
2021/12/21 02:51:11;;;;;;;19.63;6.50;;;;;;;6.31;57.91;102642.03;5074589;28;20128;-62
2021/12/21 02:53:41;;;;;;;21.92;7.55;;;;;;;6.30;57.86;102651.03;5077106;28;20052;-62
2021/12/21 02:56:09;;;;;;;15.02;7.68;;;;;;;6.29;57.85;102654.69;5067450;28;20080;-62
2021/12/21 02:58:36;;;;;;;13.82;7.25;;;;;;;6.29;57.91;102650.19;5064752;28;20048;-62
2021/12/21 03:01:06;;;;;;;21.10;7.78;;;;;;;6.28;57.65;102643.16;5078306;28;20126;-62
2021/12/21 03:03:34;;;;;;;18.88;6.95;;;;;;;6.27;57.72;102649.50;5066015;28;20048;-62
2021/12/21 03:06:08;;;;;;;17.17;7.28;;;;;;;6.28;57.95;102640.50;5064794;28;20041;-62
2021/12/21 03:08:39;;;;;;;20.98;8.90;;;;;;;6.28;58.09;102637.81;5067533;28;20061;-62
2021/12/21 03:11:15;;;;;;;21.15;7.55;;;;;;;6.28;57.84;102651.19;5076317;28;20045;-62
2021/12/21 03:14:04;;;;;;;16.73;8.30;;;;;;;6.27;57.78;102635.31;5066716;28;20052;-62
2021/12/21 03:16:33;;;;;;;23.20;8.32;;;;;;;6.26;57.57;102638.97;5066569;28;20053;-62
2021/12/21 03:19:02;;;;;;;19.13;7.35;;;;;;;6.24;58.05;102636.44;5065800;28;20490;-62
2021/12/21 03:21:30;;;;;;;17.63;9.15;;;;;;;6.24;57.83;102639.13;5065951;28;20045;-62
2021/12/21 03:23:58;;;;;;;18.55;7.07;;;;;;;6.24;57.96;102635.59;5069020;28;20075;-62
2021/12/21 03:26:28;;;;;;;21.52;7.20;;;;;;;6.23;57.82;102633.91;5079956;28;20344;-62
2021/12/21 03:28:56;;;;;;;14.20;7.07;;;;;;;6.20;57.77;102624.38;5076681;28;20048;-62
2021/12/21 03:31:24;;;;;;;21.75;7.43;;;;;;;6.16;57.84;102621.16;5063532;28;20053;-62
2021/12/21 03:33:52;;;;;;;19.20;6.63;;;;;;;6.20;57.88;102632.41;5074033;28;20049;-62
2021/12/21 03:36:20;;;;;;;24.15;9.07;;;;;;;6.18;57.80;102621.88;5066727;28;20053;-63
2021/12/21 03:38:55;;;;;;;18.77;7.78;;;;;;;6.16;57.80;102628.34;5075105;28;20044;-62
2021/12/21 03:41:24;;;;;;;21.20;7.95;;;;;;;6.16;57.81;102628.34;5068999;28;20045;-62
2021/12/21 03:43:55;;;;;;;20.20;8.07;;;;;;;6.14;57.85;102628.50;5072649;28;20056;-62
2021/12/21 03:46:24;;;;;;;19.10;8.45;;;;;;;6.16;57.57;102623.00;5067613;28;20079;-62
2021/12/21 03:48:52;;;;;;;15.82;6.93;;;;;;;6.15;57.82;102624.00;5067649;28;20481;-62
2021/12/21 03:51:21;;;;;;;20.05;7.55;;;;;;;6.12;57.91;102630.47;5064480;28;20045;-62
2021/12/21 03:53:50;;;;;;;18.30;7.45;;;;;;;6.11;57.44;102628.78;5079212;28;20336;-62
2021/12/21 03:56:38;;;;;;;21.17;7.10;;;;;;;6.12;57.53;102618.94;5069958;28;20052;-62
2021/12/21 03:59:08;;;;;;;16.45;7.40;;;;;;;6.10;57.56;102621.78;5069961;28;20048;-62
2021/12/21 04:01:36;;;;;;;19.15;7.15;;;;;;;6.09;57.42;102614.75;5071614;28;20098;-62
2021/12/21 04:04:04;;;;;;;18.92;7.47;;;;;;;6.07;57.39;102619.41;5067636;28;20049;-62
2021/12/21 04:06:32;;;;;;;17.80;8.35;;;;;;;6.06;57.53;102617.72;5074180;28;20049;-62
2021/12/21 04:09:00;;;;;;;16.50;7.35;;;;;;;6.04;57.36;102611.69;5080895;28;20068;-62
2021/12/21 04:11:28;;;;;;;29.33;8.95;;;;;;;6.02;57.64;102611.00;5065263;28;20075;-62
2021/12/21 04:13:57;;;;;;;17.30;7.68;;;;;;;6.03;57.91;102611.84;5070368;28;20059;-62
2021/12/21 04:16:26;;;;;;;14.30;6.60;;;;;;;6.02;57.51;102618.16;5072949;28;20528;-62
2021/12/21 04:18:54;;;;;;;16.90;7.65;;;;;;;6.00;57.71;102620.97;5070162;28;20056;-62
2021/12/21 04:21:22;;;;;;;19.63;8.43;;;;;;;6.00;57.50;102620.13;5063250;28;20095;-62
2021/12/21 04:23:50;;;;;;;19.17;8.15;;;;;;;6.00;57.89;102623.66;5074624;28;20399;-62
2021/12/21 04:26:18;;;;;;;16.98;8.50;;;;;;;5.99;57.64;102627.31;5072174;28;20045;-62
2021/12/21 04:28:46;;;;;;;15.55;7.05;;;;;;;5.97;57.63;102626.63;5079677;28;20048;-62
2021/12/21 04:31:15;;;;;;;18.65;7.50;;;;;;;5.98;57.26;102616.78;5077290;28;20067;-62
2021/12/21 04:33:45;;;;;;;21.58;7.75;;;;;;;5.96;57.44;102614.25;5066703;28;20059;-62
2021/12/21 04:36:13;;;;;;;14.65;7.25;;;;;;;5.92;57.24;102618.22;5063160;28;20083;-63
2021/12/21 04:38:45;;;;;;;13.85;7.00;;;;;;;5.94;57.19;102610.91;5063734;28;20063;-62
2021/12/21 04:41:15;;;;;;;20.65;8.15;;;;;;;5.93;57.49;102616.38;5066973;28;20506;-63
2021/12/21 04:43:44;;;;;;;17.40;7.75;;;;;;;5.94;57.46;102610.06;5070275;28;20073;-63
2021/12/21 04:46:12;;;;;;;21.50;8.07;;;;;;;5.90;57.48;102603.34;5073030;28;20047;-62
2021/12/21 04:48:40;;;;;;;21.48;8.52;;;;;;;5.88;57.25;102608.78;5067781;28;20060;-62
2021/12/21 04:51:09;;;;;;;22.45;7.15;;;;;;;5.87;57.52;102607.94;5074051;28;20060;-62
2021/12/21 04:53:37;;;;;;;16.15;6.63;;;;;;;5.86;57.54;102608.94;5064732;28;20048;-62
2021/12/21 04:56:05;;;;;;;17.52;7.22;;;;;;;5.86;57.46;102608.09;5066508;28;20055;-62
2021/12/21 04:58:33;;;;;;;16.20;7.03;;;;;;;5.85;57.50;102603.75;5066184;28;20063;-62
2021/12/21 05:01:01;;;;;;;16.63;7.82;;;;;;;5.86;57.14;102611.59;5068982;28;20075;-62
2021/12/21 05:03:29;;;;;;;18.25;7.88;;;;;;;5.84;57.45;102613.56;5073335;28;20091;-62
2021/12/21 05:05:57;;;;;;;16.95;7.50;;;;;;;5.81;57.69;102608.53;5077069;28;20045;-62
2021/12/21 05:08:31;;;;;;;17.38;7.53;;;;;;;5.83;57.56;102613.72;5069203;28;20049;-62
2021/12/21 05:11:03;;;;;;;18.45;7.95;;;;;;;5.82;56.86;102615.56;5062256;28;20036;-62
2021/12/21 05:13:34;;;;;;;18.55;7.60;;;;;;;5.80;57.55;102617.53;5069174;28;20049;-63
2021/12/21 05:16:03;;;;;;;15.35;7.40;;;;;;;5.82;57.02;102614.72;5065593;28;20182;-62
2021/12/21 05:18:32;;;;;;;12.93;6.50;;;;;;;5.81;57.46;102621.88;5074992;28;20044;-62
2021/12/21 05:21:00;;;;;;;20.30;7.28;;;;;;;5.79;57.06;102612.34;5063319;28;20045;-62
2021/12/21 05:23:30;;;;;;;19.23;7.97;;;;;;;5.80;56.98;102616.69;5071074;28;20057;-62
2021/12/21 05:25:58;;;;;;;17.08;6.65;;;;;;;5.78;57.65;102608.00;5067772;28;20082;-62
2021/12/21 05:28:25;;;;;;;18.48;6.97;;;;;;;5.79;57.52;102615.00;5071268;28;20049;-62
2021/12/21 05:30:53;;;;;;;16.02;7.25;;;;;;;5.77;57.03;102612.50;5074658;28;20114;-63
2021/12/21 05:33:21;;;;;;;17.60;8.02;;;;;;;5.77;56.99;102620.50;5064679;28;20075;-62
2021/12/21 05:35:49;;;;;;;17.55;7.25;;;;;;;5.75;57.01;102617.13;5062863;28;20095;-62
2021/12/21 05:38:24;;;;;;;16.60;7.15;;;;;;;5.73;56.91;102613.78;5071891;28;20056;-62
2021/12/21 05:40:54;;;;;;;18.27;7.45;;;;;;;5.75;57.35;102616.28;5060995;28;20098;-62
2021/12/21 05:43:22;;;;;;;21.13;8.07;;;;;;;5.74;57.21;102614.59;5072398;28;20070;-62
2021/12/21 05:45:49;;;;;;;18.73;7.40;;;;;;;5.73;56.99;102612.94;5066334;28;20098;-62
2021/12/21 05:48:17;;;;;;;16.63;8.30;;;;;;;5.71;57.41;102614.91;5070706;28;20056;-62
2021/12/21 05:50:45;;;;;;;18.85;7.53;;;;;;;5.71;57.21;102614.91;5065648;28;20078;-62
2021/12/21 05:53:13;;;;;;;17.90;6.75;;;;;;;5.70;57.44;102616.72;5069262;28;20045;-62
2021/12/21 05:55:41;;;;;;;18.60;7.40;;;;;;;5.60;57.49;102597.25;5065118;28;20052;-62
2021/12/21 05:58:10;;;;;;;17.38;6.95;;;;;;;5.68;56.97;102612.53;5072679;28;20366;-62
2021/12/21 06:00:38;;;;;;;14.32;6.90;;;;;;;5.65;56.79;102621.66;5063044;28;20049;-63
2021/12/21 06:03:06;;;;;;;20.10;7.78;;;;;;;5.68;57.12;102612.53;5066882;28;20075;-62
2021/12/21 06:05:34;;;;;;;17.10;7.07;;;;;;;5.69;57.02;102617.72;5066347;28;20052;-62
2021/12/21 06:08:03;;;;;;;19.42;7.43;;;;;;;5.74;56.87;102618.13;5066966;28;20048;-62
2021/12/21 06:10:34;;;;;;;23.73;8.00;;;;;;;5.74;56.64;102609.28;5072109;28;20056;-62
2021/12/21 06:13:27;;;;;;;14.32;7.50;;;;;;;5.73;56.51;102611.09;5073943;28;20036;-62
2021/12/21 06:16:24;;;;;;;14.93;7.28;;;;;;;5.72;56.72;102611.25;5067163;28;20049;-64
2021/12/21 06:27:12;;;;;;;18.98;7.80;;;;;;;5.76;56.63;102608.13;5069812;28;20071;-64
2021/12/21 06:29:57;;;;;;;18.83;7.90;;;;;;;5.72;56.32;102606.75;4932374;28;10000574;-65
2021/12/21 06:32:27;;;;;;;20.38;7.68;;;;;;;5.71;56.55;102615.75;5064311;28;20269;-64
2021/12/21 06:34:55;;;;;;;24.30;7.75;;;;;;;5.66;56.63;102612.66;5061935;28;20568;-66
2021/12/21 06:37:23;;;;;;;17.27;8.48;;;;;;;5.68;56.35;102616.03;5062296;28;20052;-65
2021/12/21 06:39:51;;;;;;;22.42;8.68;;;;;;;5.65;56.57;102611.00;5061510;28;20045;-63
2021/12/21 06:42:20;;;;;;;22.45;6.88;;;;;;;5.62;56.79;102607.78;5057253;28;20049;-62
2021/12/21 06:44:54;;;;;;;17.05;8.40;;;;;;;5.60;57.03;102607.91;5064699;28;20052;-64
2021/12/21 06:53:06;;;;;;;17.08;7.50;;;;;;;5.54;56.44;102613.84;5027063;28;20084;-64
2021/12/21 06:55:34;;;;;;;22.70;9.88;;;;;;;5.51;56.60;102612.31;5038279;28;20117;-65
2021/12/21 06:58:02;;;;;;;20.27;8.43;;;;;;;5.51;56.84;102620.31;5025199;28;20049;-62
2021/12/21 07:00:30;;;;;;;17.25;7.25;;;;;;;5.48;56.55;102619.75;5017278;28;20084;-62
2021/12/21 07:02:58;;;;;;;20.42;8.00;;;;;;;5.48;56.58;102631.25;5024431;28;20054;-65
2021/12/21 07:05:28;;;;;;;18.33;8.30;;;;;;;5.47;56.44;102626.91;5019966;28;20057;-61
2021/12/21 07:07:57;;;;;;;22.13;8.35;;;;;;;5.47;57.07;102621.56;5021543;28;20041;-62
2021/12/21 07:10:26;;;;;;;22.92;8.57;;;;;;;5.47;56.27;102623.41;5018333;28;20084;-61
2021/12/21 07:18:30;;;;;;;16.08;7.78;;;;;;;5.44;56.72;102626.34;5018095;28;20108;-60
2021/12/21 07:21:01;;;;;;;22.58;8.52;;;;;;;5.42;56.46;102623.84;5020323;28;20131;-60
2021/12/21 07:23:30;;;;;;;21.92;8.20;;;;;;;5.41;56.64;102623.97;5022468;28;20053;-60
2021/12/21 07:25:58;;;;;;;20.33;8.23;;;;;;;5.40;56.57;102624.97;5066544;28;20128;-60
2021/12/21 07:28:25;;;;;;;18.77;7.97;;;;;;;5.39;56.84;102625.94;5072563;28;20056;-62
2021/12/21 07:30:54;;;;;;;21.33;8.45;;;;;;;5.29;56.34;102614.47;5070860;28;20051;-60
2021/12/21 07:33:22;;;;;;;18.75;8.32;;;;;;;5.37;56.36;102627.91;5077336;28;20477;-60
2021/12/21 07:35:49;;;;;;;17.75;7.40;;;;;;;5.37;56.47;102630.59;5073382;28;20137;-61
2021/12/21 07:38:19;;;;;;;16.27;8.15;;;;;;;5.35;56.70;102628.06;5080129;28;20082;-60
2021/12/21 07:40:47;;;;;;;19.02;8.05;;;;;;;5.33;56.33;102632.69;5073810;28;20056;-60
2021/12/21 07:43:15;;;;;;;17.55;7.47;;;;;;;5.33;56.76;102632.69;5069737;28;20079;-60
2021/12/21 07:45:43;;;;;;;18.00;8.10;;;;;;;5.33;57.03;102635.38;5071069;28;20049;-60
2021/12/21 07:48:11;;;;;;;20.90;7.90;;;;;;;5.33;56.84;102634.53;5072792;28;20082;-60
2021/12/21 07:50:40;;;;;;;16.88;7.75;;;;;;;5.32;56.89;102633.69;5066655;28;20121;-60
2021/12/21 07:53:08;;;;;;;16.92;8.13;;;;;;;5.32;57.22;102631.00;5063866;28;20075;-58
2021/12/21 07:55:37;;;;;;;17.23;8.48;;;;;;;5.31;57.01;102631.16;5066300;28;20646;-60
2021/12/21 07:58:05;;;;;;;18.08;8.27;;;;;;;5.31;56.79;102640.00;5064591;28;20119;-61
2021/12/21 08:00:33;;;;;;;20.92;8.13;;;;;;;5.31;57.01;102639.16;5068190;28;20044;-61
2021/12/21 08:03:01;;;;;;;16.20;7.88;;;;;;;5.30;56.74;102640.97;5069571;28;20071;-60
2021/12/21 08:05:33;;;;;;;21.30;8.05;;;;;;;5.30;56.51;102645.47;5068517;28;20070;-59
2021/12/21 08:08:12;;;;;;;16.42;8.25;;;;;;;5.30;56.51;102651.66;5068354;28;20049;-60
2021/12/21 08:10:45;;;;;;;16.63;8.50;;;;;;;5.29;57.03;102644.63;5065156;28;20040;-65
2021/12/21 08:13:13;;;;;;;18.83;8.82;;;;;;;5.31;56.91;102641.81;5069283;28;20045;-60
2021/12/21 08:15:41;;;;;;;16.67;7.95;;;;;;;5.30;57.31;102646.31;4711376;28;9999725;-61
2021/12/21 08:18:09;;;;;;;18.75;7.57;;;;;;;5.28;56.83;102642.94;5066118;28;20114;-60
2021/12/21 08:20:37;;;;;;;17.42;7.82;;;;;;;5.26;57.39;102644.06;5060572;28;20118;-61
2021/12/21 08:23:06;;;;;;;19.05;7.82;;;;;;;5.26;57.01;102655.56;5067444;28;20424;-60
2021/12/21 08:25:35;;;;;;;14.75;7.43;;;;;;;5.25;57.11;102643.22;5067736;28;20049;-60
2021/12/21 08:28:09;;;;;;;14.13;7.15;;;;;;;5.27;57.30;102645.75;5069943;28;20051;-60
2021/12/21 08:30:36;;;;;;;16.88;8.00;;;;;;;5.27;57.25;102645.75;5060117;28;20076;-60
2021/12/21 08:33:05;;;;;;;17.08;7.95;;;;;;;5.26;56.91;102644.06;5068431;28;20064;-60
2021/12/21 08:35:33;;;;;;;16.05;8.70;;;;;;;5.27;56.68;102640.44;5070508;28;20041;-59
2021/12/21 08:38:04;;;;;;;16.17;7.65;;;;;;;5.26;57.02;102641.41;5063993;28;20135;-59
2021/12/21 08:40:39;;;;;;;20.15;8.68;;;;;;;5.26;56.78;102638.75;5078912;28;20075;-58
2021/12/21 08:43:09;;;;;;;14.43;8.18;;;;;;;5.24;57.19;102647.72;5069055;28;20040;-59
2021/12/21 08:45:38;;;;;;;22.77;8.90;;;;;;;5.23;56.48;102646.03;5074618;28;20083;-59
2021/12/21 08:48:06;;;;;;;17.40;8.48;;;;;;;5.27;56.69;102645.75;5071419;28;20045;-59
2021/12/21 08:50:35;;;;;;;30.88;7.95;;;;;;;5.37;56.79;102633.25;5077642;28;20489;-60
2021/12/21 08:53:03;;;;;;;21.70;6.75;;;;;;;5.50;55.80;102645.28;5070661;28;20045;-60
2021/12/21 08:55:32;;;;;;;16.77;7.47;;;;;;;5.63;55.73;102641.47;5071248;28;20049;-59
2021/12/21 08:58:00;;;;;;;16.05;7.78;;;;;;;5.78;55.53;102643.50;5072893;28;20064;-59
2021/12/21 09:00:29;;;;;;;16.95;7.97;;;;;;;5.90;54.90;102649.53;5064183;28;20068;-59
2021/12/21 09:02:56;;;;;;;19.58;8.93;;;;;;;6.03;54.45;102649.19;5077118;28;20452;-61
2021/12/21 09:05:27;;;;;;;18.27;7.18;;;;;;;6.11;54.27;102639.47;5055201;28;20186;-60
2021/12/21 09:07:55;;;;;;;15.85;6.95;;;;;;;6.30;53.68;102643.03;5070911;28;20063;-60
2021/12/21 09:10:24;;;;;;;18.08;8.27;;;;;;;6.42;53.44;102650.66;5072611;28;20059;-61
2021/12/21 09:12:53;;;;;;;15.68;7.55;;;;;;;6.52;53.26;102640.75;5067439;28;20076;-60
2021/12/21 09:15:22;;;;;;;13.63;7.00;;;;;;;6.64;53.10;102651.22;5070306;28;20132;-60
2021/12/21 09:17:52;;;;;;;16.13;7.55;;;;;;;6.69;52.60;102644.44;5063026;28;20053;-60
2021/12/21 09:20:22;;;;;;;23.45;8.48;;;;;;;6.74;52.85;102647.50;5073022;28;20052;-60
2021/12/21 09:22:50;;;;;;;16.63;6.43;;;;;;;6.79;52.33;102645.19;5064579;28;20052;-59
2021/12/21 09:25:20;;;;;;;17.17;7.53;;;;;;;6.82;52.18;102654.75;5074617;28;20493;-60
2021/12/21 09:27:48;;;;;;;14.52;7.25;;;;;;;6.84;51.58;102656.28;5071051;28;20088;-60
2021/12/21 09:30:18;;;;;;;14.85;6.72;;;;;;;6.84;52.40;102650.94;5073238;28;20081;-59
2021/12/21 09:32:47;;;;;;;15.88;8.10;;;;;;;6.83;52.54;102640.38;5072674;28;20049;-59
2021/12/21 09:35:16;;;;;;;16.77;6.63;;;;;;;6.92;52.71;102652.84;5071263;28;20094;-60
2021/12/21 09:37:45;;;;;;;19.02;6.93;;;;;;;6.89;52.24;102645.13;5075606;28;20083;-60
2021/12/21 09:40:15;;;;;;;13.73;6.53;;;;;;;6.93;52.17;102656.34;5071322;28;20049;-60
2021/12/21 09:42:43;;;;;;;14.65;6.72;;;;;;;6.97;52.39;102661.19;5071491;28;20044;-61
2021/12/21 09:45:12;;;;;;;13.27;6.35;;;;;;;7.01;52.54;102656.38;4716174;28;9999750;-59
2021/12/21 09:47:39;;;;;;;11.85;6.68;;;;;;;7.05;51.94;102657.75;5064355;28;20045;-59
2021/12/21 09:50:09;;;;;;;14.38;6.35;;;;;;;7.06;52.40;102662.09;5069566;28;20083;-59
2021/12/21 09:52:39;;;;;;;16.85;6.75;;;;;;;7.05;52.39;102655.94;5077558;28;20090;-59
2021/12/21 09:55:11;;;;;;;11.40;6.00;;;;;;;7.04;52.44;102656.91;5067713;28;20037;-59
2021/12/21 09:57:39;;;;;;;12.45;6.53;;;;;;;7.11;52.38;102647.28;5069304;28;20052;-60
2021/12/21 10:00:12;;;;;;;12.63;6.75;;;;;;;7.15;52.29;102642.47;5073403;28;20053;-59
2021/12/21 10:02:40;;;;;;;10.90;6.07;;;;;;;7.12;52.21;102648.13;5067351;28;20068;-59
2021/12/21 10:05:11;;;;;;;14.18;7.38;;;;;;;7.06;52.37;102646.06;5057079;28;20051;-59
2021/12/21 10:07:41;;;;;;;13.65;6.55;;;;;;;6.93;53.06;102648.31;5067157;28;20068;-59
2021/12/21 10:10:12;;;;;;;14.77;6.78;;;;;;;6.78;53.45;102645.34;5071315;28;20089;-58
2021/12/21 10:12:43;;;;;;;12.50;6.32;;;;;;;6.60;54.15;102640.00;5068340;28;20044;-59
2021/12/21 10:15:13;;;;;;;12.27;6.13;;;;;;;6.46;53.93;102625.34;5071924;28;20036;-59
2021/12/21 10:17:48;;;;;;;13.55;6.30;;;;;;;6.42;54.11;102639.97;5067196;28;20088;-59
2021/12/21 10:20:31;;;;;;;19.00;6.32;;;;;;;6.36;54.84;102635.25;5059147;28;20076;-59
2021/12/21 10:23:00;;;;;;;15.32;6.93;;;;;;;6.31;54.81;102634.84;5061237;28;20045;-59
2021/12/21 10:25:28;;;;;;;14.75;5.95;;;;;;;6.28;54.80;102637.00;5062547;28;20049;-59
2021/12/21 10:27:56;;;;;;;14.05;6.00;;;;;;;6.19;55.18;102644.06;5067980;28;20048;-60
2021/12/21 10:30:24;;;;;;;9.57;5.63;;;;;;;6.14;55.17;102633.81;5063474;28;20091;-59
2021/12/21 10:32:53;;;;;;;11.07;5.85;;;;;;;6.10;55.41;102631.59;5062959;28;20045;-59
2021/12/21 10:35:31;;;;;;;14.77;6.32;;;;;;;6.07;55.75;102638.09;5067212;28;20044;-58
2021/12/21 10:38:03;;;;;;;13.88;6.07;;;;;;;6.01;55.64;102622.66;5054955;28;21624;-59
2021/12/21 10:40:31;;;;;;;12.50;5.53;;;;;;;6.00;55.98;102617.47;5064414;28;20056;-59
2021/12/21 10:43:01;;;;;;;15.10;5.82;;;;;;;5.97;55.86;102620.44;5066245;28;20076;-59
2021/12/21 10:45:33;;;;;;;15.07;6.00;;;;;;;5.94;55.95;102624.25;5062194;28;20083;-59
2021/12/21 10:48:02;;;;;;;13.23;6.00;;;;;;;5.95;56.40;102625.91;5075547;28;20059;-59
2021/12/21 10:50:33;;;;;;;14.52;5.53;;;;;;;5.95;56.20;102625.09;5064511;28;20073;-60
2021/12/21 10:53:05;;;;;;;11.18;5.25;;;;;;;5.94;56.38;102626.91;5063629;28;20528;-59
2021/12/21 10:55:35;;;;;;;12.10;4.90;;;;;;;5.91;56.26;102621.88;5056878;28;20045;-59
2021/12/21 10:58:11;;;;;;;11.73;5.78;;;;;;;5.90;56.46;102614.00;5059728;28;20119;-60
2021/12/21 11:00:41;;;;;;;10.23;4.85;;;;;;;5.89;56.55;102618.50;5062675;28;20056;-58
2021/12/21 11:03:09;;;;;;;10.55;4.80;;;;;;;5.88;56.91;102619.47;5065539;28;20063;-59
2021/12/21 11:05:38;;;;;;;14.88;5.68;;;;;;;5.86;56.82;102618.78;5067014;28;20058;-61
2021/12/21 11:08:16;;;;;;;13.55;6.18;;;;;;;5.85;56.74;102615.25;5069306;28;20051;-61
2021/12/21 11:10:51;;;;;;;10.73;5.07;;;;;;;5.85;56.50;102617.94;5069833;28;20060;-58
2021/12/21 11:13:20;;;;;;;15.23;5.30;;;;;;;5.86;57.00;102616.94;5061913;28;20080;-57
2021/12/21 11:15:52;;;;;;;12.68;5.85;;;;;;;5.86;57.27;102619.59;5058686;28;20194;-60
2021/12/21 11:18:23;;;;;;;10.65;5.00;;;;;;;5.86;57.40;102614.28;5070114;28;20127;-58
2021/12/21 11:20:54;;;;;;;19.35;6.05;;;;;;;5.90;57.18;102611.34;5064465;28;20473;-58
2021/12/21 11:23:25;;;;;;;8.40;4.30;;;;;;;5.91;57.03;102603.19;5067040;28;20052;-58
2021/12/21 11:25:56;;;;;;;9.93;4.88;;;;;;;5.88;57.15;102596.28;5069077;28;20075;-60
2021/12/21 11:28:35;;;;;;;12.15;5.22;;;;;;;5.87;57.05;102597.28;5069365;28;20111;-60
2021/12/21 11:31:05;;;;;;;9.95;4.85;;;;;;;5.92;56.87;102601.34;5065977;28;20045;-61
2021/12/21 11:33:40;;;;;;;8.82;4.28;;;;;;;5.90;56.82;102592.66;5071827;28;20044;-63
2021/12/21 11:38:56;;;;;;;7.18;3.78;;;;;;;5.88;57.29;102590.94;5071016;28;20056;-61
2021/12/21 11:41:25;;;;;;;8.02;4.50;;;;;;;5.86;57.33;102579.59;5067224;28;20083;-63
2021/12/21 11:43:57;;;;;;;13.07;4.90;;;;;;;5.87;57.56;102581.28;5081399;28;20051;-60
2021/12/21 11:46:32;;;;;;;14.85;4.55;;;;;;;5.88;57.27;102564.25;5068376;28;20398;-61
2021/12/21 11:49:07;;;;;;;8.85;4.57;;;;;;;5.91;57.43;102554.31;5070720;28;20049;-61
2021/12/21 11:51:35;;;;;;;9.23;4.57;;;;;;;5.91;57.87;102554.31;5072495;28;20056;-60
2021/12/21 11:54:15;;;;;;;8.50;4.85;;;;;;;5.90;57.58;102547.31;5068387;28;20056;-60
2021/12/21 11:56:43;;;;;;;8.18;4.13;;;;;;;5.92;57.70;102553.31;5067545;28;20085;-61
2021/12/21 11:59:11;;;;;;;11.68;4.15;;;;;;;5.94;57.87;102559.34;5071458;28;20207;-61
2021/12/21 12:01:47;;;;;;;8.82;4.47;;;;;;;5.94;57.65;102554.03;5070601;28;20105;-61
2021/12/21 12:04:16;;;;;;;10.57;4.63;;;;;;;5.93;57.62;102557.69;5067172;28;20072;-61
2021/12/21 12:06:47;;;;;;;11.35;4.57;;;;;;;5.91;57.44;102547.16;5063159;28;20072;-61
2021/12/21 12:09:24;;;;;;;11.55;4.97;;;;;;;5.93;57.43;102547.00;5069025;28;20163;-60
2021/12/21 12:11:53;;;;;;;8.48;3.78;;;;;;;5.95;57.63;102555.69;5067916;28;20407;-58
2021/12/21 12:14:23;;;;;;;10.43;4.75;;;;;;;5.94;56.93;102554.03;5073654;28;20083;-61
2021/12/21 12:16:53;;;;;;;9.77;4.43;;;;;;;5.97;57.48;102551.06;5075714;28;20048;-61
2021/12/21 12:19:28;;;;;;;11.52;4.00;;;;;;;5.97;57.38;102549.22;5081286;28;20080;-61
2021/12/21 12:21:58;;;;;;;8.38;4.43;;;;;;;5.98;57.15;102547.41;5077351;28;20091;-61
2021/12/21 12:24:33;;;;;;;9.48;3.70;;;;;;;5.99;57.47;102538.41;5063290;28;20052;-61